Time;durP1;ratioP1;P1;durP2;ratioP2;P2;SDS_P1;SDS_P2;PMS_P1;PMS_P2;Temp;Humidity;BMP_temperature;BMP_pressure;BME280_temperature;BME280_humidity;BME280_pressure;Samples;Min_cycle;Max_cycle;Signal;HPM_P1;HPM_P2
2021/07/05 00:00:14;;;;;;;6.10;0.90;;;;;;;;;;5053579;28;20066;-86
2021/07/05 00:02:40;;;;;;;6.28;1.00;;;;;;;;;;5055327;28;20048;-87
2021/07/05 00:05:06;;;;;;;6.50;1.10;;;;;;;;;;5069295;28;20024;-87
2021/07/05 00:07:31;;;;;;;3.13;1.05;;;;;;;;;;5072705;28;20052;-87
2021/07/05 00:09:56;;;;;;;3.75;1.42;;;;;;;;;;5075023;28;20385;-87
2021/07/05 00:12:22;;;;;;;3.15;1.10;;;;;;;;;;5067998;28;20465;-87
2021/07/05 00:14:48;;;;;;;2.55;1.10;;;;;;;;;;5046754;28;20026;-87
2021/07/05 00:17:13;;;;;;;2.47;1.20;;;;;;;;;;5108665;28;20027;-87
2021/07/05 00:19:38;;;;;;;5.07;1.90;;;;;;;;;;5075001;28;20027;-87
2021/07/05 00:22:03;;;;;;;4.60;1.23;;;;;;;;;;5074514;28;20490;-86
2021/07/05 00:24:29;;;;;;;2.60;1.30;;;;;;;;;;5074889;28;20021;-86
2021/07/05 00:26:54;;;;;;;4.47;1.67;;;;;;;;;;5073447;28;20108;-86
2021/07/05 00:29:19;;;;;;;4.80;1.30;;;;;;;;;;5043348;28;20028;-86
2021/07/05 00:31:44;;;;;;;4.13;1.10;;;;;;;;;;5057994;28;20021;-87
2021/07/05 00:34:10;;;;;;;3.20;1.30;;;;;;;;;;5073738;28;20025;-87
2021/07/05 00:36:35;;;;;;;1.25;1.00;;;;;;;;;;5074550;28;20019;-86
2021/07/05 00:39:00;;;;;;;3.85;1.20;;;;;;;;;;5071673;28;20414;-86
2021/07/05 00:41:29;;;;;;;4.90;1.20;;;;;;;;;;5062824;28;20025;-87
2021/07/05 00:43:54;;;;;;;4.72;1.40;;;;;;;;;;5074204;28;20028;-87
2021/07/05 00:46:19;;;;;;;1.67;1.10;;;;;;;;;;5066728;28;20044;-87
2021/07/05 00:48:44;;;;;;;3.60;1.27;;;;;;;;;;5058096;28;20017;-87
2021/07/05 00:51:09;;;;;;;2.90;1.10;;;;;;;;;;5072701;28;20016;-86
2021/07/05 00:53:35;;;;;;;4.00;1.10;;;;;;;;;;5069347;28;20162;-86
2021/07/05 00:56:00;;;;;;;4.70;1.20;;;;;;;;;;5067006;28;20473;-87
2021/07/05 00:58:25;;;;;;;8.65;1.38;;;;;;;;;;5058164;28;20032;-87
2021/07/05 01:00:50;;;;;;;4.38;1.42;;;;;;;;;;5059951;28;20025;-86
2021/07/05 01:03:16;;;;;;;4.57;1.10;;;;;;;;;;5055791;28;20021;-87
2021/07/05 01:05:41;;;;;;;0.98;0.80;;;;;;;;;;5066289;28;20107;-87
2021/07/05 01:08:06;;;;;;;2.60;1.10;;;;;;;;;;5061144;28;20387;-87
2021/07/05 01:10:31;;;;;;;5.50;0.90;;;;;;;;;;5073865;28;20029;-86
2021/07/05 01:12:57;;;;;;;3.15;0.93;;;;;;;;;;5053531;28;20083;-85
2021/07/05 01:15:24;;;;;;;3.38;1.10;;;;;;;;;;5047358;28;20059;-86
2021/07/05 01:17:50;;;;;;;5.78;1.13;;;;;;;;;;5067012;28;20446;-86
2021/07/05 01:20:17;;;;;;;2.60;1.10;;;;;;;;;;5071556;28;20086;-86
2021/07/05 01:22:42;;;;;;;5.20;1.20;;;;;;;;;;5061181;28;20028;-85
2021/07/05 01:25:10;;;;;;;2.53;0.90;;;;;;;;;;5070877;28;20032;-85
2021/07/05 01:27:35;;;;;;;2.55;1.30;;;;;;;;;;5059788;28;20484;-85
2021/07/05 01:30:00;;;;;;;4.35;1.45;;;;;;;;;;5068888;28;20024;-85
2021/07/05 01:32:25;;;;;;;7.10;1.33;;;;;;;;;;5070126;28;20016;-91
2021/07/05 01:34:51;;;;;;;2.78;1.10;;;;;;;;;;5059842;28;20061;-86
2021/07/05 01:37:16;;;;;;;6.05;1.30;;;;;;;;;;5065178;28;20468;-86
2021/07/05 01:39:41;;;;;;;4.20;1.40;;;;;;;;;;5073571;28;20158;-86
2021/07/05 01:42:06;;;;;;;9.80;1.45;;;;;;;;;;5063989;28;20028;-86
2021/07/05 01:44:32;;;;;;;3.45;1.23;;;;;;;;;;5065793;28;20027;-86
2021/07/05 01:46:57;;;;;;;7.93;1.55;;;;;;;;;;5057530;28;20414;-85
2021/07/05 01:49:23;;;;;;;6.55;1.80;;;;;;;;;;5066512;28;20016;-85
2021/07/05 01:51:48;;;;;;;3.95;1.30;;;;;;;;;;5065869;28;20109;-86
2021/07/05 01:54:14;;;;;;;6.28;1.58;;;;;;;;;;5063204;28;20015;-86
2021/07/05 01:56:43;;;;;;;4.50;1.70;;;;;;;;;;5063606;28;20090;-86
2021/07/05 01:59:08;;;;;;;4.53;1.70;;;;;;;;;;5072845;28;20020;-86
2021/07/05 02:01:35;;;;;;;7.63;2.00;;;;;;;;;;5050412;28;20442;-86
2021/07/05 02:04:01;;;;;;;7.18;1.75;;;;;;;;;;5068256;28;20032;-86
2021/07/05 02:06:26;;;;;;;4.28;2.00;;;;;;;;;;5063288;28;20028;-86
2021/07/05 02:08:52;;;;;;;4.15;1.70;;;;;;;;;;5066045;28;20036;-86
2021/07/05 02:11:17;;;;;;;3.88;1.90;;;;;;;;;;5067446;28;20016;-86
2021/07/05 02:13:42;;;;;;;7.13;1.88;;;;;;;;;;5059373;28;20562;-86
2021/07/05 02:16:07;;;;;;;6.65;1.90;;;;;;;;;;5058903;28;20025;-86
2021/07/05 02:18:33;;;;;;;4.72;1.88;;;;;;;;;;5056934;28;20470;-86
2021/07/05 02:21:00;;;;;;;6.13;1.75;;;;;;;;;;5072523;28;20032;-86
2021/07/05 02:23:25;;;;;;;8.50;2.08;;;;;;;;;;5069738;28;20036;-86
2021/07/05 02:25:51;;;;;;;5.22;1.67;;;;;;;;;;5070893;28;20024;-86
2021/07/05 02:28:24;;;;;;;5.70;1.63;;;;;;;;;;5066699;28;20472;-86
2021/07/05 02:30:50;;;;;;;5.22;1.77;;;;;;;;;;5073688;28;20081;-86
2021/07/05 02:33:16;;;;;;;7.00;2.15;;;;;;;;;;5049276;28;20025;-86
2021/07/05 02:35:42;;;;;;;5.32;2.03;;;;;;;;;;5064593;28;20115;-86
2021/07/05 02:38:08;;;;;;;7.47;1.92;;;;;;;;;;5053950;28;20195;-85
2021/07/05 02:40:35;;;;;;;6.15;2.40;;;;;;;;;;5070428;28;20042;-86
2021/07/05 02:43:01;;;;;;;8.13;2.00;;;;;;;;;;5067109;28;20030;-85
2021/07/05 02:45:27;;;;;;;4.05;2.00;;;;;;;;;;5071344;28;20032;-86
2021/07/05 02:48:19;;;;;;;3.30;1.75;;;;;;;;;;5047685;28;20025;-86
2021/07/05 02:50:45;;;;;;;11.98;1.70;;;;;;;;;;5058062;28;20029;-86
2021/07/05 02:53:11;;;;;;;4.47;1.52;;;;;;;;;;5059426;28;20024;-86
2021/07/05 02:55:36;;;;;;;2.45;1.60;;;;;;;;;;5071935;28;20021;-86
2021/07/05 02:58:02;;;;;;;8.32;2.00;;;;;;;;;;5060720;28;20468;-86
2021/07/05 03:00:29;;;;;;;5.55;1.92;;;;;;;;;;5061380;28;20024;-85
2021/07/05 03:02:54;;;;;;;6.30;1.55;;;;;;;;;;5077683;28;20023;-86
2021/07/05 03:05:20;;;;;;;9.23;1.70;;;;;;;;;;5067992;28;20033;-86
2021/07/05 03:07:45;;;;;;;7.15;1.70;;;;;;;;;;5069996;28;20131;-86
2021/07/05 03:10:12;;;;;;;5.80;1.67;;;;;;;;;;5066893;28;20129;-85
2021/07/05 03:12:37;;;;;;;6.50;2.00;;;;;;;;;;5057156;28;20027;-86
2021/07/05 03:15:04;;;;;;;5.78;1.90;;;;;;;;;;5071533;28;20020;-86
2021/07/05 03:17:29;;;;;;;3.80;1.95;;;;;;;;;;5059789;28;20029;-86
2021/07/05 03:19:54;;;;;;;3.85;1.50;;;;;;;;;;5066895;28;20104;-86
2021/07/05 03:22:20;;;;;;;3.72;1.70;;;;;;;;;;5070354;28;20021;-86
2021/07/05 03:24:45;;;;;;;4.63;1.90;;;;;;;;;;5071549;28;20029;-85
2021/07/05 03:27:11;;;;;;;7.00;1.75;;;;;;;;;;5066944;28;20013;-86
2021/07/05 03:29:36;;;;;;;3.78;1.70;;;;;;;;;;5063590;28;20388;-86
2021/07/05 03:32:02;;;;;;;5.28;1.67;;;;;;;;;;5066245;28;20028;-86
2021/07/05 03:34:28;;;;;;;3.72;2.10;;;;;;;;;;5071492;28;20016;-86
2021/07/05 03:36:53;;;;;;;2.92;1.73;;;;;;;;;;5067159;28;20021;-86
2021/07/05 03:39:18;;;;;;;8.82;1.88;;;;;;;;;;5050441;28;20025;-86
2021/07/05 03:41:43;;;;;;;4.40;1.88;;;;;;;;;;5066564;28;20017;-85
2021/07/05 03:44:08;;;;;;;6.50;2.40;;;;;;;;;;5071100;28;20032;-86
2021/07/05 03:46:34;;;;;;;5.07;1.88;;;;;;;;;;5058570;28;20035;-86
2021/07/05 03:48:59;;;;;;;6.43;2.20;;;;;;;;;;5044179;28;20108;-86
2021/07/05 03:51:24;;;;;;;12.77;2.38;;;;;;;;;;5064051;28;20024;-86
2021/07/05 03:53:49;;;;;;;5.55;2.05;;;;;;;;;;5058138;28;20419;-85
2021/07/05 03:56:15;;;;;;;5.00;2.25;;;;;;;;;;5051260;28;20037;-85
2021/07/05 03:58:40;;;;;;;7.75;2.40;;;;;;;;;;5058873;28;20440;-86
2021/07/05 04:01:05;;;;;;;9.50;2.25;;;;;;;;;;5067697;28;20024;-86
2021/07/05 04:03:30;;;;;;;5.20;2.33;;;;;;;;;;5044057;28;20039;-86
2021/07/05 04:05:58;;;;;;;6.93;2.35;;;;;;;;;;5068260;28;20040;-86
2021/07/05 04:08:26;;;;;;;9.00;2.35;;;;;;;;;;5061034;28;20031;-86
2021/07/05 04:10:51;;;;;;;9.05;2.25;;;;;;;;;;5071071;28;20016;-86
2021/07/05 04:13:16;;;;;;;7.20;2.42;;;;;;;;;;5043793;28;20024;-86
2021/07/05 04:15:41;;;;;;;6.38;2.42;;;;;;;;;;5068090;28;20036;-86
2021/07/05 04:18:07;;;;;;;8.63;2.78;;;;;;;;;;5050439;28;20432;-85
2021/07/05 04:20:33;;;;;;;12.27;2.22;;;;;;;;;;5070976;28;20008;-86
2021/07/05 04:22:58;;;;;;;7.15;2.20;;;;;;;;;;5054903;28;20090;-86
2021/07/05 04:25:24;;;;;;;7.43;2.38;;;;;;;;;;5070309;28;20017;-86
2021/07/05 04:27:49;;;;;;;14.52;2.97;;;;;;;;;;5062822;28;20021;-86
2021/07/05 04:30:15;;;;;;;7.65;2.33;;;;;;;;;;5066039;28;20017;-86
2021/07/05 04:32:41;;;;;;;6.78;2.17;;;;;;;;;;5060794;28;20074;-86
2021/07/05 04:35:07;;;;;;;10.35;2.17;;;;;;;;;;5060259;28;20024;-86
2021/07/05 04:37:33;;;;;;;14.75;2.28;;;;;;;;;;5061994;28;20036;-86
2021/07/05 04:39:58;;;;;;;11.27;2.70;;;;;;;;;;5054491;28;20511;-86
2021/07/05 04:42:23;;;;;;;14.10;3.38;;;;;;;;;;5065325;28;20108;-86
2021/07/05 04:44:50;;;;;;;6.72;2.58;;;;;;;;;;5071600;28;20035;-86
2021/07/05 04:47:16;;;;;;;11.75;2.65;;;;;;;;;;5058329;28;20029;-86
2021/07/05 04:49:41;;;;;;;7.40;2.85;;;;;;;;;;5063144;28;20036;-86
2021/07/05 04:52:06;;;;;;;15.68;3.08;;;;;;;;;;5068300;28;20036;-86
2021/07/05 04:54:31;;;;;;;9.43;2.78;;;;;;;;;;5074416;28;20128;-86
2021/07/05 04:56:56;;;;;;;10.75;3.33;;;;;;;;;;5066360;28;20021;-86
2021/07/05 04:59:22;;;;;;;8.02;2.85;;;;;;;;;;5058959;28;20134;-86
2021/07/05 05:01:47;;;;;;;5.22;2.53;;;;;;;;;;5055697;28;20049;-86
2021/07/05 05:04:13;;;;;;;17.10;2.78;;;;;;;;;;5067822;28;20024;-86
2021/07/05 05:06:38;;;;;;;10.52;3.40;;;;;;;;;;5065675;28;20392;-86
2021/07/05 05:09:03;;;;;;;10.43;3.05;;;;;;;;;;5054394;28;20083;-86
2021/07/05 05:11:28;;;;;;;9.75;3.25;;;;;;;;;;5068852;28;20020;-85
2021/07/05 05:13:54;;;;;;;13.35;2.72;;;;;;;;;;5059166;28;20084;-86
2021/07/05 05:16:19;;;;;;;14.38;3.00;;;;;;;;;;5064773;28;20064;-85
2021/07/05 05:18:44;;;;;;;6.03;2.83;;;;;;;;;;5055775;28;20111;-86
2021/07/05 05:21:10;;;;;;;7.30;2.90;;;;;;;;;;5073732;28;20032;-86
2021/07/05 05:23:35;;;;;;;9.27;3.20;;;;;;;;;;5068175;28;20033;-86
2021/07/05 05:26:01;;;;;;;11.05;3.60;;;;;;;;;;5053472;28;20075;-86
2021/07/05 05:28:26;;;;;;;8.60;2.85;;;;;;;;;;5063047;28;20120;-85
2021/07/05 05:30:51;;;;;;;11.15;3.45;;;;;;;;;;5073555;28;20016;-86
2021/07/05 05:33:16;;;;;;;8.57;2.88;;;;;;;;;;5066167;28;20020;-85
2021/07/05 05:35:41;;;;;;;8.27;2.90;;;;;;;;;;5073466;28;20482;-86
2021/07/05 05:38:07;;;;;;;7.70;2.97;;;;;;;;;;5062014;28;20027;-86
2021/07/05 05:40:32;;;;;;;13.95;3.28;;;;;;;;;;5068607;28;20443;-86
2021/07/05 05:42:57;;;;;;;10.13;2.60;;;;;;;;;;5061668;28;20032;-86
2021/07/05 05:45:22;;;;;;;11.93;2.97;;;;;;;;;;5072900;28;20032;-86
2021/07/05 05:47:48;;;;;;;8.93;2.50;;;;;;;;;;5058797;28;20033;-86
2021/07/05 05:50:14;;;;;;;12.80;3.80;;;;;;;;;;5064779;28;20025;-85
2021/07/05 05:52:39;;;;;;;9.15;2.97;;;;;;;;;;5052953;28;20127;-86
2021/07/05 05:55:05;;;;;;;12.70;2.83;;;;;;;;;;5064731;28;20091;-86
2021/07/05 05:57:31;;;;;;;13.25;2.67;;;;;;;;;;5057385;28;20048;-86
2021/07/05 05:59:57;;;;;;;9.98;2.85;;;;;;;;;;5052492;28;20021;-86
2021/07/05 06:02:23;;;;;;;8.88;2.65;;;;;;;;;;5051692;28;20044;-84
2021/07/05 06:04:48;;;;;;;13.05;2.70;;;;;;;;;;5062490;28;20083;-86
2021/07/05 06:07:14;;;;;;;6.95;2.70;;;;;;;;;;5055022;28;20027;-86
2021/07/05 06:09:39;;;;;;;14.50;3.00;;;;;;;;;;5057575;28;20028;-86
2021/07/05 06:12:04;;;;;;;11.05;3.17;;;;;;;;;;5056464;28;20049;-85
2021/07/05 06:14:29;;;;;;;10.57;3.00;;;;;;;;;;5052140;28;20096;-85
2021/07/05 06:16:55;;;;;;;6.53;2.63;;;;;;;;;;5060514;28;20464;-86
2021/07/05 06:19:20;;;;;;;8.32;3.00;;;;;;;;;;5058664;28;20440;-86
2021/07/05 06:21:45;;;;;;;10.75;3.10;;;;;;;;;;5067624;28;20028;-86
2021/07/05 06:24:10;;;;;;;8.27;2.60;;;;;;;;;;5068837;28;20013;-86
2021/07/05 06:26:35;;;;;;;11.63;3.00;;;;;;;;;;5064737;28;20395;-86
2021/07/05 06:29:00;;;;;;;11.45;3.00;;;;;;;;;;5061630;28;20024;-86
2021/07/05 06:31:26;;;;;;;10.73;2.83;;;;;;;;;;5059217;28;20034;-86
2021/07/05 06:33:51;;;;;;;9.73;2.80;;;;;;;;;;5060054;28;20498;-86
2021/07/05 06:36:17;;;;;;;9.77;3.28;;;;;;;;;;5063537;28;20464;-86
2021/07/05 06:38:42;;;;;;;16.80;2.97;;;;;;;;;;5059246;28;20020;-85
2021/07/05 06:41:08;;;;;;;7.32;2.97;;;;;;;;;;5053774;28;20029;-86
2021/07/05 06:43:33;;;;;;;10.48;3.25;;;;;;;;;;5065620;28;20033;-85
2021/07/05 06:45:58;;;;;;;8.65;2.92;;;;;;;;;;5057040;28;20119;-85
2021/07/05 06:48:24;;;;;;;13.93;3.92;;;;;;;;;;5053000;28;20116;-85
2021/07/05 06:50:49;;;;;;;9.75;3.53;;;;;;;;;;5070747;28;20027;-85
2021/07/05 06:53:14;;;;;;;17.60;3.50;;;;;;;;;;5058969;28;20029;-85
2021/07/05 06:55:39;;;;;;;11.73;3.25;;;;;;;;;;5072108;28;20020;-85
2021/07/05 06:58:05;;;;;;;16.30;3.13;;;;;;;;;;5060834;28;20025;-86
2021/07/05 07:00:31;;;;;;;6.55;3.08;;;;;;;;;;5058639;28;20040;-85
2021/07/05 07:02:57;;;;;;;9.18;3.95;;;;;;;;;;5057668;28;20028;-85
2021/07/05 07:05:23;;;;;;;10.25;3.15;;;;;;;;;;5062200;28;20021;-85
2021/07/05 07:07:50;;;;;;;20.83;3.47;;;;;;;;;;5055257;28;20029;-85
2021/07/05 07:10:16;;;;;;;13.82;3.75;;;;;;;;;;5058412;28;20021;-85
2021/07/05 07:12:46;;;;;;;11.85;3.53;;;;;;;;;;5063909;28;20032;-85
2021/07/05 07:15:12;;;;;;;9.27;3.17;;;;;;;;;;5054379;28;20021;-85
2021/07/05 07:17:39;;;;;;;10.23;3.13;;;;;;;;;;5046183;28;20017;-85
2021/07/05 07:20:08;;;;;;;10.80;2.95;;;;;;;;;;5051233;28;20046;-85
2021/07/05 07:22:34;;;;;;;9.55;3.00;;;;;;;;;;5037607;28;20116;-85
2021/07/05 07:24:59;;;;;;;8.45;2.90;;;;;;;;;;5048651;28;20445;-84
2021/07/05 07:27:24;;;;;;;8.07;2.65;;;;;;;;;;5052010;28;20021;-85
2021/07/05 07:29:49;;;;;;;6.05;2.65;;;;;;;;;;5057839;28;20376;-87
2021/07/05 07:32:15;;;;;;;10.60;4.20;;;;;;;;;;5059369;28;20452;-87
2021/07/05 07:34:40;;;;;;;5.28;2.50;;;;;;;;;;5063047;28;20052;-88
2021/07/05 07:37:07;;;;;;;11.60;3.22;;;;;;;;;;5063475;28;20447;-88
2021/07/05 07:39:41;;;;;;;8.80;3.13;;;;;;;;;;5061072;28;20086;-88
2021/07/05 07:42:06;;;;;;;21.40;3.30;;;;;;;;;;5054139;28;20024;-87
2021/07/05 07:44:33;;;;;;;7.70;3.30;;;;;;;;;;5060049;28;20412;-86
2021/07/05 07:46:58;;;;;;;9.82;2.88;;;;;;;;;;5059457;28;20036;-87
2021/07/05 07:49:24;;;;;;;9.02;3.33;;;;;;;;;;5049634;28;20116;-87
2021/07/05 07:51:49;;;;;;;11.20;3.10;;;;;;;;;;5050513;28;20025;-87
2021/07/05 07:54:14;;;;;;;11.38;3.10;;;;;;;;;;5050902;28;20022;-88
2021/07/05 07:56:40;;;;;;;11.70;2.70;;;;;;;;;;5050998;28;20028;-88
2021/07/05 07:59:05;;;;;;;13.32;2.65;;;;;;;;;;5050737;28;20033;-88
2021/07/05 08:01:30;;;;;;;10.25;2.75;;;;;;;;;;5050527;28;20025;-88
2021/07/05 08:03:56;;;;;;;12.70;2.80;;;;;;;;;;5049288;28;20052;-88
2021/07/05 08:06:21;;;;;;;8.00;2.50;;;;;;;;;;5053260;28;20041;-87
2021/07/05 08:08:49;;;;;;;8.15;2.10;;;;;;;;;;5054003;28;20025;-88
2021/07/05 08:11:14;;;;;;;6.53;2.13;;;;;;;;;;5055520;28;20123;-88
2021/07/05 08:13:40;;;;;;;7.15;2.22;;;;;;;;;;5055215;28;20139;-88
2021/07/05 08:16:05;;;;;;;6.28;2.25;;;;;;;;;;5054197;28;20112;-85
2021/07/05 08:18:30;;;;;;;8.02;3.33;;;;;;;;;;5054072;28;20029;-85
2021/07/05 08:20:55;;;;;;;10.43;2.20;;;;;;;;;;5052127;28;20075;-85
2021/07/05 08:23:21;;;;;;;8.15;2.10;;;;;;;;;;5055105;28;20106;-85
2021/07/05 08:25:46;;;;;;;6.38;2.10;;;;;;;;;;5053173;28;20039;-86
2021/07/05 08:28:11;;;;;;;6.72;2.17;;;;;;;;;;5054182;28;20025;-86
2021/07/05 08:30:36;;;;;;;9.45;2.35;;;;;;;;;;5054412;28;20021;-87
2021/07/05 08:33:02;;;;;;;7.40;2.30;;;;;;;;;;5053874;28;20484;-86
2021/07/05 08:35:27;;;;;;;4.55;1.77;;;;;;;;;;5054402;28;20018;-86
2021/07/05 08:37:53;;;;;;;6.95;1.77;;;;;;;;;;5054257;28;20434;-85
2021/07/05 08:40:18;;;;;;;10.05;1.95;;;;;;;;;;5054274;28;20021;-86
2021/07/05 08:42:44;;;;;;;7.95;2.15;;;;;;;;;;5055242;28;20056;-86
2021/07/05 08:45:10;;;;;;;5.80;2.13;;;;;;;;;;5054365;28;20035;-85
2021/07/05 08:47:37;;;;;;;6.03;2.20;;;;;;;;;;5053594;28;20321;-87
2021/07/05 08:50:04;;;;;;;4.80;2.20;;;;;;;;;;5054006;28;20039;-87
2021/07/05 08:52:31;;;;;;;4.07;1.85;;;;;;;;;;5052244;28;20122;-89
2021/07/05 08:54:56;;;;;;;3.72;1.77;;;;;;;;;;5052192;28;20048;-88
2021/07/05 08:57:30;;;;;;;5.65;2.35;;;;;;;;;;5053272;28;20031;-88
2021/07/05 08:59:55;;;;;;;4.72;1.90;;;;;;;;;;5054068;28;20028;-88
2021/07/05 09:02:21;;;;;;;8.05;1.90;;;;;;;;;;5052956;28;20025;-89
2021/07/05 09:04:47;;;;;;;5.00;1.45;;;;;;;;;;5054026;28;20017;-89
2021/07/05 09:07:12;;;;;;;3.83;1.90;;;;;;;;;;5058237;28;20357;-89
2021/07/05 09:09:37;;;;;;;3.08;1.70;;;;;;;;;;5054746;28;20044;-89
2021/07/05 09:12:07;;;;;;;4.57;1.70;;;;;;;;;;5061449;28;20031;-89
2021/07/05 09:14:33;;;;;;;8.02;2.60;;;;;;;;;;5058057;28;20071;-88
2021/07/05 09:16:59;;;;;;;7.78;2.17;;;;;;;;;;5053390;28;20037;-88
2021/07/05 09:19:25;;;;;;;4.15;2.03;;;;;;;;;;5053407;28;20048;-90
2021/07/05 09:21:51;;;;;;;4.47;2.28;;;;;;;;;;5057834;28;20028;-89
2021/07/05 09:24:29;;;;;;;6.70;2.60;;;;;;;;;;5066025;28;20028;-89
2021/07/05 09:27:21;;;;;;;2.63;1.90;;;;;;;;;;5064056;28;21486;-90
2021/07/05 09:29:47;;;;;;;7.28;2.30;;;;;;;;;;5054174;28;20059;-89
2021/07/05 09:32:23;;;;;;;9.27;2.38;;;;;;;;;;5056780;28;20543;-90
2021/07/05 09:34:48;;;;;;;4.20;2.50;;;;;;;;;;5056315;28;20491;-89
2021/07/05 09:37:21;;;;;;;6.63;2.20;;;;;;;;;;5054531;28;20025;-90
2021/07/05 09:40:08;;;;;;;4.82;2.15;;;;;;;;;;5055263;28;20030;-90
2021/07/05 09:42:33;;;;;;;6.25;2.38;;;;;;;;;;5053700;28;20097;-89
2021/07/05 09:44:59;;;;;;;6.38;2.42;;;;;;;;;;5074907;28;20028;-89
2021/07/05 09:47:27;;;;;;;7.97;2.50;;;;;;;;;;5073523;28;20061;-90
2021/07/05 09:49:57;;;;;;;3.88;2.30;;;;;;;;;;5063935;28;20056;-90
2021/07/05 09:52:26;;;;;;;5.70;2.20;;;;;;;;;;5066458;28;20013;-90
2021/07/05 09:54:53;;;;;;;9.52;2.10;;;;;;;;;;5060105;28;20472;-90
2021/07/05 09:57:29;;;;;;;5.97;2.10;;;;;;;;;;5054925;28;20032;-89
2021/07/05 09:59:55;;;;;;;2.50;1.50;;;;;;;;;;5059329;28;20028;-90
2021/07/05 10:02:21;;;;;;;3.60;1.75;;;;;;;;;;5050839;28;20056;-90
2021/07/05 10:04:48;;;;;;;6.72;1.80;;;;;;;;;;5073533;28;20438;-89
2021/07/05 10:07:13;;;;;;;7.57;1.45;;;;;;;;;;5074721;28;20109;-89
2021/07/05 10:09:43;;;;;;;2.67;1.50;;;;;;;;;;5065575;28;20051;-89
2021/07/05 10:12:28;;;;;;;5.30;1.75;;;;;;;;;;5055371;28;20043;-89
2021/07/05 10:14:54;;;;;;;5.10;1.75;;;;;;;;;;5056026;28;20021;-90
2021/07/05 10:17:20;;;;;;;6.32;1.80;;;;;;;;;;5073361;28;20024;-89
2021/07/05 10:19:45;;;;;;;5.78;2.00;;;;;;;;;;5058687;28;20522;-90
2021/07/05 10:22:11;;;;;;;5.25;2.33;;;;;;;;;;5060237;28;20460;-90
2021/07/05 10:24:36;;;;;;;7.70;2.40;;;;;;;;;;5062395;28;20060;-89
2021/07/05 10:27:02;;;;;;;5.13;1.88;;;;;;;;;;5065290;28;20028;-89
2021/07/05 10:29:27;;;;;;;4.72;2.03;;;;;;;;;;5061567;28;20433;-89
2021/07/05 10:31:53;;;;;;;6.03;1.73;;;;;;;;;;5055148;28;20364;-90
2021/07/05 10:34:22;;;;;;;5.93;1.90;;;;;;;;;;5068260;28;20095;-90
2021/07/05 10:36:49;;;;;;;4.50;1.85;;;;;;;;;;5053890;28;20021;-90
2021/07/05 10:39:15;;;;;;;7.22;2.00;;;;;;;;;;5053545;28;20032;-90
2021/07/05 10:41:41;;;;;;;11.23;2.55;;;;;;;;;;5054860;28;20021;-90
2021/07/05 10:44:09;;;;;;;5.65;1.88;;;;;;;;;;5064996;28;20029;-90
2021/07/05 10:46:46;;;;;;;13.20;2.13;;;;;;;;;;5053664;28;20024;-90
2021/07/05 10:51:56;;;;;;;5.45;2.13;;;;;;;;;;5067737;28;20476;-90
2021/07/05 10:55:00;;;;;;;4.63;1.83;;;;;;;;;;5058271;28;20017;-89
2021/07/05 10:57:28;;;;;;;6.88;1.77;;;;;;;;;;5024765;28;20052;-90
2021/07/05 10:59:53;;;;;;;7.07;2.15;;;;;;;;;;5016204;28;20460;-90
2021/07/05 11:02:31;;;;;;;6.28;1.92;;;;;;;;;;5045437;28;20043;-90
2021/07/05 11:04:56;;;;;;;6.75;2.10;;;;;;;;;;5061383;28;20150;-90
2021/07/05 11:07:24;;;;;;;3.90;1.77;;;;;;;;;;5071968;28;20432;-87
2021/07/05 11:09:53;;;;;;;3.13;1.67;;;;;;;;;;5053894;28;20456;-87
2021/07/05 11:12:28;;;;;;;5.05;1.88;;;;;;;;;;5061826;28;20024;-87
2021/07/05 11:14:53;;;;;;;6.18;1.70;;;;;;;;;;5059011;28;20464;-87
2021/07/05 11:17:21;;;;;;;3.00;1.67;;;;;;;;;;5065416;28;20119;-87
2021/07/05 11:19:48;;;;;;;5.63;1.80;;;;;;;;;;5052710;28;20463;-87
2021/07/05 11:22:18;;;;;;;2.92;1.48;;;;;;;;;;5059470;28;20060;-87
2021/07/05 11:24:46;;;;;;;4.60;1.92;;;;;;;;;;5070274;28;20422;-87
2021/07/05 11:27:46;;;;;;;4.07;1.48;;;;;;;;;;5053909;28;20028;-87
2021/07/05 11:30:17;;;;;;;2.45;1.45;;;;;;;;;;5054206;28;20097;-87
2021/07/05 11:32:43;;;;;;;5.97;1.57;;;;;;;;;;5041775;28;20127;-88
2021/07/05 11:35:28;;;;;;;3.08;1.40;;;;;;;;;;5067522;28;20578;-87
2021/07/05 11:38:22;;;;;;;4.13;1.67;;;;;;;;;;5057744;28;20024;-88
2021/07/05 11:40:47;;;;;;;3.88;1.35;;;;;;;;;;5075616;28;20096;-88
2021/07/05 11:43:13;;;;;;;1.83;1.35;;;;;;;;;;5064270;28;20048;-88
2021/07/05 11:45:38;;;;;;;2.75;2.05;;;;;;;;;;5070579;28;20037;-88
2021/07/05 11:48:04;;;;;;;9.07;1.50;;;;;;;;;;5066184;28;20018;-88
2021/07/05 11:50:30;;;;;;;3.25;1.25;;;;;;;;;;5061800;28;20262;-88
2021/07/05 11:52:57;;;;;;;2.65;1.40;;;;;;;;;;5077294;28;20473;-88
2021/07/05 11:55:23;;;;;;;3.88;1.50;;;;;;;;;;5070090;28;20115;-88
2021/07/05 11:57:50;;;;;;;3.88;1.27;;;;;;;;;;5063283;28;20020;-88
2021/07/05 12:00:16;;;;;;;5.32;1.38;;;;;;;;;;5064480;28;20021;-89
2021/07/05 12:02:42;;;;;;;2.78;1.33;;;;;;;;;;5055494;28;20031;-88
2021/07/05 12:05:08;;;;;;;3.45;1.40;;;;;;;;;;5055242;28;20498;-88
2021/07/05 12:07:33;;;;;;;2.00;1.10;;;;;;;;;;5059041;28;20017;-90
2021/07/05 12:09:58;;;;;;;2.80;1.30;;;;;;;;;;5064530;28;20020;-90
2021/07/05 12:12:24;;;;;;;3.95;1.30;;;;;;;;;;5071996;28;20025;-90
2021/07/05 12:14:50;;;;;;;5.55;1.20;;;;;;;;;;5061114;28;20024;-90
2021/07/05 12:17:16;;;;;;;3.60;1.25;;;;;;;;;;5059848;28;20017;-91
2021/07/05 12:19:43;;;;;;;4.45;1.50;;;;;;;;;;5055529;28;20472;-90
2021/07/05 12:22:12;;;;;;;2.53;1.50;;;;;;;;;;5057925;28;20025;-90
2021/07/05 12:24:39;;;;;;;6.50;1.70;;;;;;;;;;5061900;28;20103;-90
2021/07/05 12:27:09;;;;;;;3.38;1.40;;;;;;;;;;5065941;28;20078;-91
2021/07/05 12:29:45;;;;;;;3.03;1.60;;;;;;;;;;5058851;28;20028;-91
2021/07/05 12:32:16;;;;;;;4.15;1.30;;;;;;;;;;5058138;28;20032;-90
2021/07/05 12:34:41;;;;;;;3.50;1.70;;;;;;;;;;5063448;28;20028;-90
2021/07/05 12:37:07;;;;;;;4.82;1.45;;;;;;;;;;5059579;28;20048;-90
2021/07/05 12:39:45;;;;;;;2.55;1.50;;;;;;;;;;5065545;28;20028;-90
2021/07/05 12:42:24;;;;;;;3.05;1.50;;;;;;;;;;5061128;28;20028;-90
2021/07/05 12:44:49;;;;;;;3.38;1.30;;;;;;;;;;5075445;28;20043;-90
2021/07/05 12:47:15;;;;;;;3.53;1.30;;;;;;;;;;5062021;28;20025;-91
2021/07/05 12:49:40;;;;;;;3.17;1.52;;;;;;;;;;5089319;28;20522;-91
2021/07/05 12:52:09;;;;;;;2.78;1.40;;;;;;;;;;5070343;28;20044;-91
2021/07/05 12:54:38;;;;;;;2.08;1.10;;;;;;;;;;5075484;28;20023;-91
2021/07/05 12:57:13;;;;;;;1.95;1.10;;;;;;;;;;5062269;28;20443;-91
2021/07/05 12:59:41;;;;;;;3.58;1.33;;;;;;;;;;5054904;28;20049;-89
2021/07/05 13:02:21;;;;;;;1.92;1.20;;;;;;;;;;5057605;28;20086;-88
2021/07/05 13:04:46;;;;;;;2.80;1.05;;;;;;;;;;5078076;28;20021;-89
2021/07/05 13:07:20;;;;;;;3.03;1.23;;;;;;;;;;5054497;28;20040;-88
2021/07/05 13:09:45;;;;;;;2.40;1.38;;;;;;;;;;5047917;28;20389;-89
2021/07/05 13:12:15;;;;;;;3.00;1.20;;;;;;;;;;5074494;28;20023;-88
2021/07/05 13:14:43;;;;;;;2.20;1.50;;;;;;;;;;5062779;28;20104;-88
2021/07/05 13:17:10;;;;;;;9.90;1.60;;;;;;;;;;5067067;28;20025;-88
2021/07/05 13:19:36;;;;;;;1.63;1.00;;;;;;;;;;5074397;28;20178;-88
2021/07/05 13:22:11;;;;;;;1.80;1.10;;;;;;;;;;5074264;28;20048;-88
2021/07/05 13:24:41;;;;;;;3.33;1.10;;;;;;;;;;5073327;28;20377;-88
2021/07/05 13:27:13;;;;;;;1.38;0.80;;;;;;;;;;5064866;28;20391;-89
2021/07/05 13:29:39;;;;;;;2.75;1.20;;;;;;;;;;5074237;28;20483;-89
2021/07/05 13:32:13;;;;;;;1.40;1.05;;;;;;;;;;5059921;28;20025;-88
2021/07/05 13:34:40;;;;;;;2.15;1.10;;;;;;;;;;5065698;28;20021;-89
2021/07/05 13:37:07;;;;;;;6.43;1.50;;;;;;;;;;5059043;28;20021;-88
2021/07/05 13:39:33;;;;;;;2.67;1.23;;;;;;;;;;5055313;28;20094;-89
2021/07/05 13:42:07;;;;;;;2.05;0.82;;;;;;;;;;5069825;28;20356;-89
2021/07/05 13:44:33;;;;;;;1.70;1.08;;;;;;;;;;5064270;28;20502;-89
2021/07/05 13:47:13;;;;;;;1.80;1.20;;;;;;;;;;5056831;28;20047;-89
2021/07/05 13:49:38;;;;;;;3.97;1.30;;;;;;;;;;5064322;28;20024;-89
2021/07/05 13:52:04;;;;;;;5.45;1.02;;;;;;;;;;5072752;28;20494;-89
2021/07/05 13:54:29;;;;;;;2.85;1.10;;;;;;;;;;5053752;28;20017;-89
2021/07/05 13:57:07;;;;;;;1.45;0.93;;;;;;;;;;5056753;28;20418;-89
2021/07/05 13:59:32;;;;;;;1.73;0.90;;;;;;;;;;5040378;28;20506;-89
2021/07/05 14:01:58;;;;;;;1.98;1.00;;;;;;;;;;5065976;28;20020;-89
2021/07/05 14:04:23;;;;;;;3.22;1.38;;;;;;;;;;5068447;28;20028;-89
2021/07/05 14:06:48;;;;;;;1.05;0.80;;;;;;;;;;5053829;28;20704;-89
2021/07/05 14:09:13;;;;;;;2.25;0.80;;;;;;;;;;5068270;28;20023;-88
2021/07/05 14:11:38;;;;;;;1.80;1.02;;;;;;;;;;5073347;28;20478;-89
2021/07/05 14:14:04;;;;;;;0.80;0.80;;;;;;;;;;5062481;28;20036;-89
2021/07/05 14:16:32;;;;;;;1.17;0.90;;;;;;;;;;5064347;28;20357;-89
2021/07/05 14:18:57;;;;;;;0.93;0.52;;;;;;;;;;5064766;28;20025;-89
2021/07/05 14:21:23;;;;;;;2.35;0.80;;;;;;;;;;5067558;28;20028;-89
2021/07/05 14:23:48;;;;;;;1.00;0.70;;;;;;;;;;5067824;28;20480;-89
2021/07/05 14:26:13;;;;;;;1.77;0.60;;;;;;;;;;5061693;28;20381;-89
2021/07/05 14:28:39;;;;;;;1.13;0.77;;;;;;;;;;5071087;28;20074;-89
2021/07/05 14:31:05;;;;;;;2.80;0.70;;;;;;;;;;5073131;28;20016;-89
2021/07/05 14:33:30;;;;;;;1.73;0.90;;;;;;;;;;5069087;28;20044;-90
2021/07/05 14:35:58;;;;;;;4.43;0.90;;;;;;;;;;5059862;28;20056;-89
2021/07/05 14:38:24;;;;;;;1.13;0.65;;;;;;;;;;5053864;28;20456;-88
2021/07/05 14:40:49;;;;;;;0.52;0.50;;;;;;;;;;5059146;28;20013;-89